Time;durP1;ratioP1;P1;durP2;ratioP2;P2;SDS_P1;SDS_P2;PMS_P1;PMS_P2;Temp;Humidity;BMP_temperature;BMP_pressure;BME280_temperature;BME280_humidity;BME280_pressure;Samples;Min_cycle;Max_cycle;Signal;HPM_P1;HPM_P2
2024/01/27 00:01:50;;;;;;;5.90;1.45;;;3.90;99.90;;;;;;4951593;28;20036;-71
2024/01/27 00:04:16;;;;;;;8.45;1.48;;;3.90;99.90;;;;;;4950864;28;20027;-71
2024/01/27 00:06:42;;;;;;;3.70;1.40;;;4.00;99.90;;;;;;4958455;28;20031;-71
2024/01/27 00:09:08;;;;;;;4.43;2.38;;;4.00;99.90;;;;;;4966142;28;20035;-72
2024/01/27 00:11:34;;;;;;;4.03;1.55;;;3.90;99.90;;;;;;4960409;28;20043;-72
2024/01/27 00:14:00;;;;;;;12.88;1.55;;;3.90;99.90;;;;;;4958327;28;20032;-72
2024/01/27 00:16:25;;;;;;;6.32;1.25;;;3.90;99.90;;;;;;4959251;28;20039;-71
2024/01/27 00:18:51;;;;;;;8.85;1.25;;;3.80;99.90;;;;;;4951588;28;20484;-72
2024/01/27 00:21:17;;;;;;;1.85;0.57;;;3.90;99.90;;;;;;4965298;28;20367;-71
2024/01/27 00:23:43;;;;;;;3.10;1.13;;;3.90;99.90;;;;;;4939478;28;20043;-72
2024/01/27 00:26:08;;;;;;;5.18;1.00;;;3.90;99.90;;;;;;4951534;28;20035;-72
2024/01/27 00:28:34;;;;;;;3.35;1.45;;;3.90;99.90;;;;;;4954449;28;20027;-72
2024/01/27 00:31:00;;;;;;;3.78;1.33;;;3.90;99.90;;;;;;4953433;28;20032;-71
2024/01/27 00:33:25;;;;;;;4.78;1.50;;;3.80;99.90;;;;;;4957969;28;20112;-72
2024/01/27 00:35:51;;;;;;;3.97;1.27;;;3.80;99.90;;;;;;4960418;28;20121;-72
2024/01/27 00:38:17;;;;;;;5.32;2.25;;;3.80;99.90;;;;;;4950176;28;20039;-72
2024/01/27 00:40:43;;;;;;;2.42;1.65;;;3.80;99.90;;;;;;4951522;28;20036;-72
2024/01/27 00:43:09;;;;;;;4.32;2.00;;;3.80;99.90;;;;;;4957415;28;20030;-72
2024/01/27 00:45:35;;;;;;;3.70;2.35;;;3.80;99.90;;;;;;4966045;28;20027;-72
2024/01/27 00:48:01;;;;;;;8.00;2.08;;;3.70;99.90;;;;;;4951266;28;20046;-71
2024/01/27 00:50:27;;;;;;;4.38;2.13;;;3.70;99.90;;;;;;4958076;28;20045;-72
2024/01/27 00:52:52;;;;;;;6.07;2.10;;;3.60;99.90;;;;;;4966196;28;20118;-71
2024/01/27 00:55:18;;;;;;;2.20;1.63;;;3.50;99.90;;;;;;4951155;28;20042;-72
2024/01/27 00:57:44;;;;;;;8.57;2.08;;;3.50;99.90;;;;;;4958002;28;20341;-72
2024/01/27 01:00:11;;;;;;;3.35;1.33;;;3.50;99.90;;;;;;4962116;28;20050;-72
2024/01/27 01:02:37;;;;;;;5.25;1.75;;;3.40;99.90;;;;;;4950984;28;20042;-71
2024/01/27 01:05:04;;;;;;;12.05;1.50;;;3.40;99.90;;;;;;4945280;28;20770;-72
2024/01/27 01:07:31;;;;;;;3.78;1.90;;;3.50;99.90;;;;;;4953159;28;20088;-72
2024/01/27 01:09:57;;;;;;;1.83;1.45;;;3.50;99.90;;;;;;4969099;28;20092;-71
2024/01/27 01:12:25;;;;;;;4.18;1.63;;;3.60;99.90;;;;;;4941917;28;20031;-71
2024/01/27 01:14:51;;;;;;;3.83;2.15;;;3.60;99.90;;;;;;4951530;28;20081;-71
2024/01/27 01:17:17;;;;;;;4.00;1.90;;;3.40;99.90;;;;;;4951480;28;20035;-71
2024/01/27 01:19:43;;;;;;;2.97;1.50;;;3.40;99.90;;;;;;4961824;28;20100;-72
2024/01/27 01:22:09;;;;;;;4.43;2.30;;;3.30;99.90;;;;;;4965111;28;20035;-72
2024/01/27 01:24:35;;;;;;;5.28;1.70;;;3.30;99.90;;;;;;4949413;28;20054;-72
2024/01/27 01:27:00;;;;;;;3.45;1.55;;;3.20;99.90;;;;;;4964918;28;20383;-71
2024/01/27 01:29:26;;;;;;;8.98;1.88;;;3.10;99.90;;;;;;4974909;28;20023;-70
2024/01/27 01:31:53;;;;;;;2.78;1.55;;;3.00;99.90;;;;;;4962439;28;20049;-71
2024/01/27 01:34:18;;;;;;;1.73;1.20;;;3.10;99.90;;;;;;4967559;28;20041;-70
2024/01/27 01:36:45;;;;;;;3.78;1.63;;;3.20;99.90;;;;;;4961102;28;20060;-71
2024/01/27 01:39:14;;;;;;;6.25;1.70;;;3.40;99.90;;;;;;4960543;28;20157;-70
2024/01/27 01:41:41;;;;;;;2.33;1.08;;;3.50;99.90;;;;;;4964476;28;20031;-71
2024/01/27 01:44:07;;;;;;;3.00;0.98;;;3.60;99.90;;;;;;4950433;28;20077;-71
2024/01/27 01:46:34;;;;;;;4.55;2.35;;;3.70;99.90;;;;;;4966988;28;20023;-70
2024/01/27 01:49:00;;;;;;;1.83;1.10;;;3.80;99.90;;;;;;4955661;28;20032;-70
2024/01/27 01:51:27;;;;;;;3.58;0.73;;;3.80;99.90;;;;;;4967297;28;20039;-70
2024/01/27 01:53:57;;;;;;;11.18;1.10;;;3.80;99.90;;;;;;4965808;28;20030;-70
2024/01/27 01:56:24;;;;;;;10.38;2.05;;;3.80;99.90;;;;;;5004739;22;20095;-70
2024/01/27 01:58:50;;;;;;;7.93;1.23;;;3.80;99.90;;;;;;5052707;28;20039;-70
2024/01/27 02:01:18;;;;;;;1.35;0.93;;;3.50;99.90;;;;;;5054471;28;20546;-70
2024/01/27 02:03:57;;;;;;;4.72;1.65;;;3.20;99.90;;;;;;5053807;28;20032;-70
2024/01/27 02:06:23;;;;;;;2.72;1.35;;;2.90;99.90;;;;;;5066307;28;20472;-70
2024/01/27 02:08:50;;;;;;;5.00;1.40;;;2.30;99.90;;;;;;5051199;28;20033;-70
2024/01/27 02:11:16;;;;;;;2.10;1.02;;;2.20;99.90;;;;;;5038089;28;20033;-70
2024/01/27 02:13:42;;;;;;;3.47;1.00;;;2.20;99.90;;;;;;5073575;28;20105;-70
2024/01/27 02:16:08;;;;;;;4.82;2.25;;;2.20;99.90;;;;;;5070045;28;20479;-70
2024/01/27 02:18:34;;;;;;;5.25;1.77;;;2.20;99.90;;;;;;5053761;28;20036;-70
2024/01/27 02:20:59;;;;;;;6.32;1.67;;;2.20;99.90;;;;;;5052569;28;20032;-70
2024/01/27 02:23:25;;;;;;;5.88;3.28;;;2.20;99.90;;;;;;5039568;28;20484;-70
2024/01/27 02:25:51;;;;;;;3.45;1.65;;;2.20;99.90;;;;;;5074046;28;20060;-70
2024/01/27 02:28:17;;;;;;;7.97;2.38;;;2.10;99.90;;;;;;5070076;28;20036;-70
2024/01/27 02:30:43;;;;;;;2.72;1.13;;;1.90;99.90;;;;;;5070953;28;20044;-70
2024/01/27 02:33:09;;;;;;;4.53;2.38;;;1.90;99.90;;;;;;5054317;28;20070;-70
2024/01/27 02:35:35;;;;;;;4.30;1.40;;;1.80;99.90;;;;;;5078600;28;20036;-70
2024/01/27 02:38:01;;;;;;;12.02;2.05;;;1.80;99.90;;;;;;5046348;28;20033;-70
2024/01/27 02:40:27;;;;;;;28.77;2.58;;;1.80;99.90;;;;;;5027816;28;20028;-70
2024/01/27 02:42:52;;;;;;;4.45;2.20;;;1.70;99.90;;;;;;5058925;28;20532;-70
2024/01/27 02:45:18;;;;;;;4.88;3.00;;;1.70;99.90;;;;;;5076445;28;20370;-70
2024/01/27 02:47:44;;;;;;;4.00;2.03;;;1.70;99.90;;;;;;5047682;28;20059;-70
2024/01/27 02:50:11;;;;;;;6.63;2.75;;;1.60;99.90;;;;;;5072587;28;20039;-70
2024/01/27 02:52:37;;;;;;;4.63;2.13;;;1.70;99.90;;;;;;5073452;28;20055;-70
2024/01/27 02:55:03;;;;;;;2.60;1.75;;;1.80;99.90;;;;;;5039086;28;20028;-70
2024/01/27 02:57:29;;;;;;;9.95;1.83;;;1.80;99.90;;;;;;5072494;28;20571;-70
2024/01/27 02:59:55;;;;;;;8.93;3.13;;;1.80;99.90;;;;;;5057345;28;20032;-70
2024/01/27 03:02:21;;;;;;;3.88;1.80;;;1.80;99.90;;;;;;5054822;28;20537;-70
2024/01/27 03:04:46;;;;;;;7.25;2.13;;;1.80;99.90;;;;;;5059788;28;20025;-70
2024/01/27 03:07:12;;;;;;;11.23;2.63;;;1.80;99.90;;;;;;5077734;28;20392;-70
2024/01/27 03:09:38;;;;;;;3.30;2.00;;;1.70;99.90;;;;;;5055964;28;20029;-70
2024/01/27 03:12:04;;;;;;;15.65;2.45;;;1.70;99.90;;;;;;5055751;28;20032;-70
2024/01/27 03:14:30;;;;;;;3.17;2.42;;;1.50;99.90;;;;;;5050386;28;20098;-70
2024/01/27 03:16:56;;;;;;;7.00;3.08;;;1.20;99.90;;;;;;5052519;28;20119;-70
2024/01/27 03:19:22;;;;;;;4.72;2.80;;;1.20;99.90;;;;;;5052496;28;20056;-70
2024/01/27 03:21:47;;;;;;;8.63;2.85;;;1.30;99.90;;;;;;5071405;28;20422;-70
2024/01/27 03:24:13;;;;;;;2.90;1.90;;;1.30;99.90;;;;;;5055453;28;20082;-70
2024/01/27 03:26:39;;;;;;;4.97;2.20;;;1.30;99.90;;;;;;5060598;28;20048;-70
2024/01/27 03:29:05;;;;;;;6.13;2.47;;;1.30;99.90;;;;;;5048083;28;20063;-70
2024/01/27 03:31:34;;;;;;;4.75;3.13;;;1.20;99.90;;;;;;5053584;28;20484;-70
2024/01/27 03:34:02;;;;;;;5.70;2.05;;;1.20;99.90;;;;;;5054921;28;20488;-70
2024/01/27 03:36:28;;;;;;;4.30;1.95;;;1.20;99.90;;;;;;5053371;28;20048;-70
2024/01/27 03:38:57;;;;;;;2.90;1.63;;;1.10;99.90;;;;;;5051410;28;20036;-69
2024/01/27 03:41:23;;;;;;;3.40;1.70;;;1.10;99.90;;;;;;5048118;28;20101;-69
2024/01/27 03:43:48;;;;;;;12.15;2.95;;;1.10;99.90;;;;;;5050956;28;20800;-69
2024/01/27 03:46:15;;;;;;;2.03;1.25;;;1.10;99.90;;;;;;5050682;28;20763;-69
2024/01/27 03:48:41;;;;;;;3.42;1.40;;;1.10;99.90;;;;;;5046546;28;20481;-69
2024/01/27 03:51:06;;;;;;;8.20;2.13;;;1.00;99.90;;;;;;5061045;28;20130;-70
2024/01/27 03:53:32;;;;;;;4.68;2.33;;;1.00;99.90;;;;;;5073218;28;20115;-70
2024/01/27 03:55:59;;;;;;;5.20;2.67;;;1.00;99.90;;;;;;5067150;28;20033;-70
2024/01/27 03:58:25;;;;;;;8.20;3.17;;;1.00;99.90;;;;;;5053835;28;20082;-70
2024/01/27 04:00:51;;;;;;;9.27;3.42;;;1.00;99.90;;;;;;5058477;28;20032;-70
2024/01/27 04:03:17;;;;;;;3.90;2.13;;;1.00;99.90;;;;;;5049181;28;20025;-70
2024/01/27 04:05:43;;;;;;;3.42;1.80;;;1.00;99.90;;;;;;5057466;28;20027;-70
2024/01/27 04:08:09;;;;;;;6.85;2.47;;;1.00;99.90;;;;;;5058710;28;20134;-70
2024/01/27 04:10:36;;;;;;;3.30;1.95;;;1.00;99.90;;;;;;5045841;28;20035;-71
2024/01/27 04:13:02;;;;;;;6.35;1.52;;;0.90;99.90;;;;;;5054332;28;20085;-71
2024/01/27 04:15:38;;;;;;;4.35;2.40;;;0.90;99.90;;;;;;5071065;28;20099;-71
2024/01/27 04:18:08;;;;;;;3.15;1.95;;;0.80;99.90;;;;;;5054753;28;20066;-71
2024/01/27 04:20:34;;;;;;;7.00;2.25;;;0.80;99.90;;;;;;5070986;28;20024;-71
2024/01/27 04:23:00;;;;;;;16.00;2.92;;;0.80;99.90;;;;;;5053780;28;20109;-71
2024/01/27 04:25:26;;;;;;;6.30;3.30;;;0.80;99.90;;;;;;5043532;28;20029;-71
2024/01/27 04:27:52;;;;;;;4.38;2.33;;;0.80;99.90;;;;;;5071720;28;20085;-71
2024/01/27 04:30:19;;;;;;;4.72;2.75;;;0.80;99.90;;;;;;5073019;28;20040;-71
2024/01/27 04:32:44;;;;;;;7.15;2.90;;;0.80;99.90;;;;;;5058980;28;20033;-71
2024/01/27 04:35:12;;;;;;;4.75;1.92;;;0.60;99.90;;;;;;5067609;28;20093;-69
2024/01/27 04:37:38;;;;;;;4.55;3.47;;;0.60;99.90;;;;;;5071356;28;20074;-69
2024/01/27 04:40:05;;;;;;;5.35;2.80;;;0.60;99.90;;;;;;5071493;28;20032;-69
2024/01/27 04:42:34;;;;;;;9.52;3.65;;;0.70;99.90;;;;;;5060428;28;20032;-70
2024/01/27 04:45:00;;;;;;;7.47;2.42;;;0.80;99.90;;;;;;5050369;28;20029;-69
2024/01/27 04:47:26;;;;;;;10.73;1.95;;;0.90;99.90;;;;;;5032455;28;20070;-69
2024/01/27 04:49:51;;;;;;;6.43;2.92;;;0.80;99.90;;;;;;5053235;28;20399;-69
2024/01/27 04:52:17;;;;;;;7.53;3.42;;;0.80;99.90;;;;;;5071530;28;20024;-69
2024/01/27 04:54:43;;;;;;;12.32;2.75;;;0.70;99.90;;;;;;5071330;28;20051;-69
2024/01/27 04:57:09;;;;;;;5.95;2.60;;;0.70;99.90;;;;;;5071212;28;20082;-69
2024/01/27 04:59:35;;;;;;;7.28;2.63;;;0.70;99.90;;;;;;5072489;28;20021;-69
2024/01/27 05:02:01;;;;;;;6.55;4.10;;;0.70;99.90;;;;;;5071227;28;20036;-69
2024/01/27 05:04:27;;;;;;;11.80;3.38;;;0.70;99.90;;;;;;5070958;28;20033;-69
2024/01/27 05:06:53;;;;;;;4.30;2.53;;;0.70;99.90;;;;;;5078185;28;20044;-69
2024/01/27 05:09:19;;;;;;;8.27;2.92;;;0.70;99.90;;;;;;5071035;28;20036;-69
2024/01/27 05:11:45;;;;;;;7.57;1.98;;;0.70;99.90;;;;;;5071039;28;20051;-69
2024/01/27 05:14:11;;;;;;;3.08;2.20;;;0.60;99.90;;;;;;5069083;28;20025;-69
2024/01/27 05:16:37;;;;;;;4.97;2.50;;;0.60;99.90;;;;;;5051817;28;20115;-69
2024/01/27 05:19:03;;;;;;;12.85;1.95;;;0.60;99.90;;;;;;5049630;28;20163;-69
2024/01/27 05:21:28;;;;;;;3.45;2.33;;;0.60;99.90;;;;;;5073355;28;20029;-69
2024/01/27 05:23:54;;;;;;;3.35;2.17;;;0.50;99.90;;;;;;5070720;28;20036;-69
2024/01/27 05:26:21;;;;;;;2.58;1.73;;;0.50;99.90;;;;;;5071262;28;20098;-70
2024/01/27 05:28:47;;;;;;;3.55;2.42;;;0.50;99.90;;;;;;5072482;28;20036;-70
2024/01/27 05:31:12;;;;;;;12.65;3.00;;;0.50;99.90;;;;;;5048041;28;20729;-70
2024/01/27 05:33:41;;;;;;;3.92;1.60;;;0.40;99.90;;;;;;5069913;28;20417;-71
2024/01/27 05:36:07;;;;;;;3.60;2.55;;;0.40;99.90;;;;;;5070992;28;20035;-70
2024/01/27 05:38:33;;;;;;;7.25;3.50;;;0.40;99.90;;;;;;5052132;28;20040;-70
2024/01/27 05:41:02;;;;;;;19.30;2.95;;;0.40;99.90;;;;;;5077604;28;20036;-72
2024/01/27 05:43:28;;;;;;;4.80;3.60;;;0.40;99.90;;;;;;5052040;28;20024;-70
2024/01/27 05:45:55;;;;;;;18.27;1.92;;;0.40;99.90;;;;;;5069405;28;20531;-70
2024/01/27 05:48:21;;;;;;;7.72;2.53;;;0.30;99.90;;;;;;5036235;28;20032;-70
2024/01/27 05:51:00;;;;;;;4.88;2.50;;;0.30;99.90;;;;;;5070062;28;20032;-70
2024/01/27 05:53:27;;;;;;;6.07;2.33;;;0.30;99.90;;;;;;5068391;28;20063;-70
2024/01/27 05:55:59;;;;;;;4.82;2.47;;;0.30;99.90;;;;;;5073593;28;20047;-70
2024/01/27 05:58:25;;;;;;;5.18;2.78;;;0.30;99.90;;;;;;5054062;28;20063;-70
2024/01/27 06:00:50;;;;;;;2.78;1.92;;;0.30;99.90;;;;;;5048646;28;20076;-70
2024/01/27 06:03:17;;;;;;;4.35;2.35;;;0.30;99.90;;;;;;5035521;28;20381;-70
2024/01/27 06:05:43;;;;;;;5.32;2.58;;;0.20;99.90;;;;;;5049039;28;20068;-70
2024/01/27 06:08:08;;;;;;;11.95;3.70;;;0.20;99.90;;;;;;5065023;28;20512;-70
2024/01/27 06:10:36;;;;;;;3.63;2.25;;;0.20;99.90;;;;;;5070433;28;20115;-70
2024/01/27 06:13:03;;;;;;;11.18;2.42;;;0.20;99.90;;;;;;5048619;28;20059;-70
2024/01/27 06:15:29;;;;;;;5.88;2.90;;;0.20;99.90;;;;;;5034805;28;20414;-70
2024/01/27 06:17:55;;;;;;;4.97;2.03;;;0.20;99.90;;;;;;5070265;28;20029;-70
2024/01/27 06:20:21;;;;;;;3.15;2.15;;;0.20;99.90;;;;;;5044589;28;20078;-71
2024/01/27 06:22:46;;;;;;;18.67;4.28;;;0.10;99.90;;;;;;5070148;28;20031;-70
2024/01/27 06:25:12;;;;;;;4.93;2.17;;;0.10;99.90;;;;;;5071736;28;20024;-70
2024/01/27 06:27:38;;;;;;;2.58;1.67;;;0.10;99.90;;;;;;5052760;28;20378;-70
2024/01/27 06:30:05;;;;;;;2.90;2.08;;;0.20;99.90;;;;;;5071729;28;20029;-70
2024/01/27 06:32:31;;;;;;;3.70;2.45;;;0.20;99.90;;;;;;5052681;28;20028;-70
2024/01/27 06:34:57;;;;;;;7.43;3.00;;;0.30;99.90;;;;;;5073232;28;20033;-70
2024/01/27 06:37:22;;;;;;;2.30;1.60;;;0.30;99.90;;;;;;5073662;28;20083;-70
2024/01/27 06:39:48;;;;;;;3.28;1.65;;;0.30;99.90;;;;;;5046624;28;20060;-69
2024/01/27 06:42:14;;;;;;;2.90;2.22;;;0.30;99.90;;;;;;5069682;28;20028;-69
2024/01/27 06:44:40;;;;;;;5.03;2.92;;;0.30;99.90;;;;;;5073389;28;20086;-69
2024/01/27 06:47:08;;;;;;;7.60;1.75;;;0.20;99.90;;;;;;5073489;28;20033;-69
2024/01/27 06:49:34;;;;;;;3.53;2.05;;;0.10;99.90;;;;;;5055942;28;20032;-69
2024/01/27 06:52:00;;;;;;;5.75;3.25;;;0.20;99.90;;;;;;5073210;28;20028;-69
2024/01/27 06:54:26;;;;;;;3.40;2.60;;;0.10;99.90;;;;;;5056014;28;20112;-70
2024/01/27 06:56:52;;;;;;;6.88;2.15;;;0.10;99.90;;;;;;5061124;28;20460;-70
2024/01/27 06:59:17;;;;;;;8.43;2.80;;;0.10;99.90;;;;;;5077722;28;20083;-71
2024/01/27 07:01:50;;;;;;;3.83;2.00;;;0.10;99.90;;;;;;5074614;28;20028;-69
2024/01/27 07:04:17;;;;;;;4.05;2.95;;;0.10;99.90;;;;;;5052460;28;20459;-68
2024/01/27 07:06:44;;;;;;;4.38;2.15;;;0.30;99.90;;;;;;5074220;28;20078;-68
2024/01/27 07:09:10;;;;;;;3.00;1.60;;;0.30;99.90;;;;;;5053912;28;20485;-68
2024/01/27 07:11:37;;;;;;;4.88;2.25;;;0.50;99.90;;;;;;5044818;28;20039;-68
2024/01/27 07:14:06;;;;;;;4.72;2.97;;;0.40;99.90;;;;;;5075072;28;20073;-68
2024/01/27 07:16:33;;;;;;;4.60;2.80;;;0.40;99.90;;;;;;5047340;28;20182;-69
2024/01/27 07:18:59;;;;;;;5.80;2.35;;;0.30;99.90;;;;;;5030966;28;20167;-68
2024/01/27 07:21:26;;;;;;;4.63;2.80;;;0.40;99.90;;;;;;5071976;28;20376;-68
2024/01/27 07:23:53;;;;;;;3.22;2.42;;;0.50;99.90;;;;;;5072811;28;20025;-69
2024/01/27 07:26:19;;;;;;;4.45;2.47;;;0.60;99.90;;;;;;5051952;28;20492;-69
2024/01/27 07:28:45;;;;;;;4.13;2.38;;;0.80;99.90;;;;;;5074694;28;20036;-68
2024/01/27 07:31:11;;;;;;;4.93;3.15;;;0.70;99.90;;;;;;5073445;28;20112;-68
2024/01/27 07:33:38;;;;;;;5.63;3.13;;;0.50;99.90;;;;;;5073034;28;20024;-68
2024/01/27 07:36:04;;;;;;;5.88;3.63;;;0.50;99.90;;;;;;5050438;28;20025;-67
2024/01/27 07:38:30;;;;;;;4.32;2.88;;;0.50;99.90;;;;;;5068054;28;20024;-67
2024/01/27 07:40:56;;;;;;;4.72;3.00;;;0.50;99.90;;;;;;5072870;28;20028;-67
2024/01/27 07:43:21;;;;;;;4.68;2.88;;;0.60;99.90;;;;;;5054574;28;20032;-67
2024/01/27 07:45:47;;;;;;;2.88;2.30;;;0.60;99.90;;;;;;5072689;28;20384;-66
2024/01/27 07:48:13;;;;;;;3.00;2.20;;;0.60;99.90;;;;;;5072162;28;20029;-67
2024/01/27 07:50:39;;;;;;;5.15;3.17;;;0.90;99.90;;;;;;5054247;28;20028;-68
2024/01/27 07:53:05;;;;;;;3.65;2.42;;;0.70;99.90;;;;;;5054573;28;20033;-67
2024/01/27 07:55:31;;;;;;;5.53;3.28;;;0.70;99.90;;;;;;5073080;28;20044;-68
2024/01/27 07:57:58;;;;;;;9.10;3.28;;;0.80;99.90;;;;;;5077739;28;20029;-68
2024/01/27 08:00:23;;;;;;;6.07;3.10;;;1.10;99.90;;;;;;5074520;28;20047;-67
2024/01/27 08:02:49;;;;;;;3.28;2.00;;;1.10;99.90;;;;;;5076948;28;20468;-67
2024/01/27 08:05:15;;;;;;;8.88;4.40;;;1.40;99.90;;;;;;5072100;28;20469;-68
2024/01/27 08:07:41;;;;;;;5.25;3.78;;;1.40;99.90;;;;;;5071758;28;20052;-68
2024/01/27 08:10:10;;;;;;;15.45;7.53;;;1.10;99.90;;;;;;5072421;28;20036;-70
2024/01/27 08:12:37;;;;;;;14.88;4.57;;;1.20;99.90;;;;;;5062361;28;20432;-70
2024/01/27 08:15:03;;;;;;;4.00;2.83;;;1.30;99.90;;;;;;5071826;28;20499;-70
2024/01/27 08:17:29;;;;;;;5.10;3.63;;;1.30;99.90;;;;;;5070968;28;20123;-70
2024/01/27 08:19:54;;;;;;;8.85;4.13;;;1.30;99.90;;;;;;5071555;28;20544;-74
2024/01/27 08:22:20;;;;;;;4.53;2.63;;;1.30;99.90;;;;;;5070732;28;20072;-70
2024/01/27 08:24:46;;;;;;;7.32;3.95;;;1.20;99.90;;;;;;5071711;28;20047;-71
2024/01/27 08:27:11;;;;;;;9.20;3.50;;;1.30;99.90;;;;;;5071884;28;20449;-71
2024/01/27 08:29:37;;;;;;;4.35;2.40;;;1.30;99.90;;;;;;5054194;28;20043;-70
2024/01/27 08:32:03;;;;;;;4.90;2.88;;;1.30;99.90;;;;;;5070466;28;20069;-70
2024/01/27 08:34:29;;;;;;;5.57;4.05;;;1.30;99.90;;;;;;5053985;28;20043;-70
2024/01/27 08:37:01;;;;;;;11.52;4.75;;;1.30;99.90;;;;;;5050190;28;20048;-70
2024/01/27 08:39:27;;;;;;;3.63;2.90;;;1.40;99.90;;;;;;5037133;28;20562;-70
2024/01/27 08:41:53;;;;;;;5.47;2.67;;;1.40;99.90;;;;;;5078761;28;20028;-70
2024/01/27 08:44:20;;;;;;;5.35;2.67;;;1.50;99.90;;;;;;5050487;28;20025;-70
2024/01/27 08:46:45;;;;;;;5.28;3.85;;;1.50;99.90;;;;;;5071681;28;20403;-70
2024/01/27 08:49:11;;;;;;;9.18;4.47;;;1.60;99.90;;;;;;5071750;28;20036;-70
2024/01/27 08:51:37;;;;;;;4.95;3.58;;;1.70;99.90;;;;;;5070393;28;20064;-70
2024/01/27 08:54:03;;;;;;;8.95;3.75;;;1.70;99.90;;;;;;5071330;28;20029;-70
2024/01/27 08:56:28;;;;;;;5.38;2.90;;;1.80;99.90;;;;;;5053129;28;20035;-70
2024/01/27 08:58:54;;;;;;;6.60;4.85;;;1.90;99.90;;;;;;5073783;28;20396;-70
2024/01/27 09:01:20;;;;;;;3.17;2.25;;;2.00;99.90;;;;;;5071054;28;20107;-70
2024/01/27 09:03:46;;;;;;;13.00;3.17;;;2.10;99.90;;;;;;5070958;28;20024;-70
2024/01/27 09:06:12;;;;;;;5.45;3.80;;;2.20;99.90;;;;;;5055948;28;20025;-70
2024/01/27 09:08:37;;;;;;;8.07;4.30;;;2.30;99.90;;;;;;5053479;28;20411;-70
2024/01/27 09:11:04;;;;;;;6.13;2.85;;;2.30;99.90;;;;;;5071039;28;20516;-70
2024/01/27 09:13:30;;;;;;;11.88;4.22;;;2.40;99.90;;;;;;5051600;28;20135;-70
2024/01/27 09:15:58;;;;;;;7.22;3.85;;;2.50;99.90;;;;;;5071417;28;20024;-70
2024/01/27 09:18:24;;;;;;;5.47;3.38;;;2.60;99.90;;;;;;5051289;28;20096;-70
2024/01/27 09:20:51;;;;;;;7.03;3.13;;;2.70;99.90;;;;;;5049933;28;20076;-70
2024/01/27 09:23:17;;;;;;;5.13;3.38;;;2.70;99.90;;;;;;5042225;28;20067;-70
2024/01/27 09:25:43;;;;;;;6.75;3.40;;;2.80;99.90;;;;;;5052627;28;20075;-70
2024/01/27 09:28:08;;;;;;;4.72;2.30;;;2.80;99.90;;;;;;5071667;28;20063;-69
2024/01/27 09:30:34;;;;;;;8.77;3.42;;;2.80;99.90;;;;;;5071820;28;20032;-69
2024/01/27 09:33:00;;;;;;;8.30;3.35;;;2.90;99.90;;;;;;5049011;28;20024;-69
2024/01/27 09:35:26;;;;;;;4.88;3.22;;;3.00;99.90;;;;;;5067775;28;20107;-70
2024/01/27 09:37:52;;;;;;;3.42;2.42;;;3.20;99.90;;;;;;5070605;28;20451;-71
2024/01/27 09:40:18;;;;;;;7.00;2.33;;;3.30;99.90;;;;;;5070793;28;20078;-71
2024/01/27 09:42:59;;;;;;;16.30;5.22;;;3.40;99.90;;;;;;5052517;28;20060;-70
2024/01/27 09:45:25;;;;;;;8.88;3.83;;;3.60;99.90;;;;;;5050124;28;20398;-70
2024/01/27 09:47:52;;;;;;;8.52;3.13;;;3.70;99.90;;;;;;5052171;28;20045;-70
2024/01/27 09:50:18;;;;;;;4.72;2.45;;;3.80;99.90;;;;;;5044607;28;20086;-71
2024/01/27 09:52:44;;;;;;;4.32;2.50;;;3.80;99.90;;;;;;5052535;28;20049;-71
2024/01/27 09:55:10;;;;;;;3.78;1.95;;;3.90;99.90;;;;;;5071487;28;20119;-71
2024/01/27 09:57:41;;;;;;;7.50;2.70;;;4.00;99.90;;;;;;5051404;28;20101;-71
2024/01/27 10:00:13;;;;;;;4.72;3.13;;;4.30;99.90;;;;;;5052284;28;20033;-71
2024/01/27 10:02:41;;;;;;;4.90;2.15;;;4.50;99.90;;;;;;5052569;28;20062;-68
2024/01/27 10:05:09;;;;;;;7.10;3.65;;;4.80;99.90;;;;;;5054940;28;20024;-68
2024/01/27 10:07:35;;;;;;;5.85;2.60;;;5.00;99.90;;;;;;5073153;28;20028;-68
2024/01/27 10:10:01;;;;;;;6.25;2.53;;;5.10;99.90;;;;;;5049024;28;20029;-69
2024/01/27 10:12:28;;;;;;;4.50;2.30;;;5.80;99.90;;;;;;5069909;28;20123;-69
2024/01/27 10:14:54;;;;;;;6.45;2.63;;;6.60;99.90;;;;;;5045114;28;20452;-69
2024/01/27 10:17:28;;;;;;;6.18;2.22;;;6.80;99.90;;;;;;5053655;28;20111;-69
2024/01/27 10:20:05;;;;;;;7.95;2.55;;;7.80;99.90;;;;;;5073983;28;20036;-69
2024/01/27 10:22:44;;;;;;;4.30;2.00;;;7.50;99.90;;;;;;5073648;28;20020;-68
2024/01/27 10:25:11;;;;;;;13.52;2.88;;;8.40;99.90;;;;;;5052762;28;20029;-66
2024/01/27 10:27:38;;;;;;;9.88;3.90;;;8.80;99.90;;;;;;5072893;28;20078;-67
2024/01/27 10:30:06;;;;;;;4.75;2.28;;;8.80;99.90;;;;;;5053732;28;20495;-69
2024/01/27 10:32:31;;;;;;;9.02;2.10;;;8.20;99.90;;;;;;5055056;28;20115;-67
2024/01/27 10:35:08;;;;;;;3.33;1.40;;;8.30;99.90;;;;;;5055885;28;20135;-67
2024/01/27 10:37:34;;;;;;;4.47;1.55;;;8.40;99.90;;;;;;5068529;28;22178;-68
2024/01/27 10:40:07;;;;;;;6.28;1.90;;;10.00;99.90;;;;;;5071473;28;20024;-68
2024/01/27 10:42:37;;;;;;;5.07;1.60;;;12.40;99.90;;;;;;5068616;28;20020;-68
2024/01/27 10:45:05;;;;;;;4.40;1.75;;;11.70;98.80;;;;;;5059489;28;20064;-69
2024/01/27 10:47:32;;;;;;;7.97;1.80;;;14.70;94.50;;;;;;5059817;28;20388;-69
2024/01/27 10:50:00;;;;;;;8.32;2.63;;;12.10;95.10;;;;;;5073256;28;20058;-69
2024/01/27 10:52:32;;;;;;;7.88;3.65;;;11.90;98.00;;;;;;5072412;28;20024;-69
2024/01/27 10:55:06;;;;;;;7.22;2.33;;;12.50;95.70;;;;;;5052862;28;20021;-69
2024/01/27 10:57:34;;;;;;;8.27;1.83;;;11.30;98.60;;;;;;5034179;28;20103;-69
2024/01/27 11:00:09;;;;;;;7.00;1.92;;;11.40;98.00;;;;;;5050375;28;20089;-69
2024/01/27 11:02:36;;;;;;;4.78;1.70;;;11.00;99.90;;;;;;5065873;28;20125;-69
2024/01/27 11:05:07;;;;;;;9.05;2.45;;;11.10;98.00;;;;;;5016154;28;20054;-69
2024/01/27 11:07:35;;;;;;;3.97;1.50;;;12.30;98.60;;;;;;5044161;28;20059;-69
2024/01/27 11:10:01;;;;;;;4.07;1.38;;;13.90;96.60;;;;;;5044193;28;20041;-69
2024/01/27 11:12:28;;;;;;;3.13;1.25;;;13.40;91.40;;;;;;5021954;28;20034;-69
2024/01/27 11:14:54;;;;;;;8.75;1.60;;;14.70;86.60;;;;;;5058454;28;20125;-69
2024/01/27 11:17:19;;;;;;;7.93;1.83;;;13.30;86.10;;;;;;5052608;28;20602;-68
2024/01/27 11:19:46;;;;;;;4.13;1.63;;;11.10;95.20;;;;;;5039127;28;20075;-69
2024/01/27 11:22:28;;;;;;;2.45;1.27;;;11.10;95.20;;;;;;5044123;28;20037;-69
2024/01/27 11:25:13;;;;;;;4.95;1.45;;;11.70;94.70;;;;;;5043323;28;20088;-69
2024/01/27 11:27:41;;;;;;;2.78;1.27;;;11.80;95.40;;;;;;5046497;28;20063;-69
2024/01/27 11:30:27;;;;;;;3.47;1.33;;;14.60;85.70;;;;;;5038701;28;20043;-69
2024/01/27 11:32:55;;;;;;;4.93;1.50;;;14.40;83.70;;;;;;5058097;28;20029;-68
2024/01/27 11:35:20;;;;;;;3.95;1.55;;;16.00;76.60;;;;;;5042352;28;20127;-67
2024/01/27 11:37:48;;;;;;;6.65;1.10;;;15.50;72.40;;;;;;5061571;28;20174;-68
2024/01/27 11:40:15;;;;;;;2.92;0.90;;;15.70;73.30;;;;;;5040314;28;20032;-68
2024/01/27 11:42:42;;;;;;;4.47;1.67;;;13.80;73.90;;;;;;5038276;28;20367;-68
2024/01/27 11:45:09;;;;;;;8.55;1.25;;;12.60;79.50;;;;;;5038445;28;20492;-69
2024/01/27 11:47:36;;;;;;;3.33;0.82;;;14.00;77.40;;;;;;5043727;28;20470;-69
2024/01/27 11:50:03;;;;;;;4.70;1.50;;;15.10;82.20;;;;;;5042361;28;20035;-69
2024/01/27 11:52:29;;;;;;;7.53;1.17;;;14.30;77.40;;;;;;5037134;28;20048;-69
2024/01/27 11:54:59;;;;;;;4.18;1.27;;;14.80;75.50;;;;;;5042372;28;20457;-68
2024/01/27 11:57:27;;;;;;;2.10;0.80;;;14.40;70.20;;;;;;5023154;28;20527;-69
2024/01/27 11:59:53;;;;;;;5.13;1.10;;;17.10;71.20;;;;;;5038640;28;20036;-69
2024/01/27 12:02:19;;;;;;;5.22;1.50;;;16.90;67.60;;;;;;5038965;28;20060;-76
2024/01/27 12:04:47;;;;;;;3.25;0.80;;;19.60;64.80;;;;;;5047157;28;20033;-75
2024/01/27 12:07:13;;;;;;;2.92;1.15;;;18.20;63.00;;;;;;5051279;28;20033;-75
2024/01/27 12:09:38;;;;;;;5.28;0.90;;;15.90;64.80;;;;;;5049010;28;20028;-79
2024/01/27 12:12:05;;;;;;;9.23;1.88;;;16.10;68.30;;;;;;5044998;28;20503;-76
2024/01/27 12:14:46;;;;;;;8.65;1.10;;;17.70;65.80;;;;;;5043698;28;20120;-76
2024/01/27 12:17:12;;;;;;;14.13;1.52;;;13.40;72.20;;;;;;5043903;28;20484;-76
2024/01/27 12:19:39;;;;;;;8.23;1.48;;;14.60;74.10;;;;;;5042033;28;20402;-76
2024/01/27 12:22:27;;;;;;;3.40;1.35;;;14.60;71.40;;;;;;5057878;28;20036;-76
2024/01/27 12:25:07;;;;;;;5.55;1.58;;;13.50;73.20;;;;;;5051368;28;20029;-77
2024/01/27 12:27:33;;;;;;;3.47;0.95;;;13.60;76.70;;;;;;5047335;28;20616;-76
2024/01/27 12:30:02;;;;;;;6.75;1.45;;;14.80;76.10;;;;;;5039988;28;20167;-73
2024/01/27 12:32:28;;;;;;;2.58;1.17;;;17.40;66.90;;;;;;5050703;28;20055;-73
2024/01/27 12:34:54;;;;;;;5.13;0.98;;;15.80;63.60;;;;;;5045527;28;20475;-74
2024/01/27 12:37:22;;;;;;;2.75;1.00;;;16.00;68.50;;;;;;5037005;28;20031;-74
2024/01/27 12:39:50;;;;;;;9.27;1.30;;;17.80;65.70;;;;;;5035990;28;20037;-74
2024/01/27 12:42:17;;;;;;;1.95;0.70;;;17.10;60.90;;;;;;5036504;28;20607;-76
2024/01/27 12:44:43;;;;;;;9.27;1.67;;;17.10;62.20;;;;;;5035132;28;20094;-76
2024/01/27 12:47:13;;;;;;;7.97;3.00;;;14.60;67.20;;;;;;5023755;28;20037;-75
2024/01/27 12:49:40;;;;;;;3.83;1.30;;;14.00;69.70;;;;;;5040235;28;20445;-76
2024/01/27 12:52:06;;;;;;;6.40;1.27;;;15.60;69.60;;;;;;5042661;28;20033;-75
2024/01/27 12:54:33;;;;;;;9.55;2.13;;;14.00;67.40;;;;;;5039480;28;20052;-75